sensor_id;sensor_type;location;lat;lon;timestamp;P1;durP1;ratioP1;P2;durP2;ratioP2
17340;SDS011;8788;49.930;8.660;2023-02-28T00:01:07;1.75;;;1.52;;
17340;SDS011;8788;49.930;8.660;2023-02-28T00:03:34;2.42;;;1.88;;
17340;SDS011;8788;49.930;8.660;2023-02-28T00:06:01;1.35;;;1.10;;
17340;SDS011;8788;49.930;8.660;2023-02-28T00:08:29;1.70;;;1.10;;
17340;SDS011;8788;49.930;8.660;2023-02-28T00:11:00;1.40;;;1.27;;
17340;SDS011;8788;49.930;8.660;2023-02-28T00:13:29;1.90;;;1.40;;
17340;SDS011;8788;49.930;8.660;2023-02-28T00:16:00;2.35;;;1.38;;
17340;SDS011;8788;49.930;8.660;2023-02-28T00:18:28;2.63;;;1.90;;
17340;SDS011;8788;49.930;8.660;2023-02-28T00:20:55;1.60;;;1.20;;
17340;SDS011;8788;49.930;8.660;2023-02-28T00:23:22;2.13;;;1.17;;
17340;SDS011;8788;49.930;8.660;2023-02-28T00:25:49;2.17;;;1.27;;
17340;SDS011;8788;49.930;8.660;2023-02-28T00:28:17;1.30;;;1.00;;
17340;SDS011;8788;49.930;8.660;2023-02-28T00:30:45;1.55;;;1.13;;
17340;SDS011;8788;49.930;8.660;2023-02-28T00:33:13;3.17;;;1.60;;
17340;SDS011;8788;49.930;8.660;2023-02-28T00:35:40;3.45;;;1.42;;
17340;SDS011;8788;49.930;8.660;2023-02-28T00:38:08;3.33;;;1.80;;
17340;SDS011;8788;49.930;8.660;2023-02-28T00:40:35;3.90;;;2.13;;
17340;SDS011;8788;49.930;8.660;2023-02-28T00:43:02;4.93;;;2.30;;
17340;SDS011;8788;49.930;8.660;2023-02-28T00:45:30;5.75;;;2.28;;
17340;SDS011;8788;49.930;8.660;2023-02-28T00:47:58;3.60;;;1.92;;
17340;SDS011;8788;49.930;8.660;2023-02-28T00:50:25;2.00;;;1.80;;
17340;SDS011;8788;49.930;8.660;2023-02-28T00:52:52;3.38;;;1.48;;
17340;SDS011;8788;49.930;8.660;2023-02-28T00:55:19;1.73;;;1.63;;
17340;SDS011;8788;49.930;8.660;2023-02-28T00:57:47;3.15;;;1.60;;
17340;SDS011;8788;49.930;8.660;2023-02-28T01:00:14;1.83;;;1.60;;
17340;SDS011;8788;49.930;8.660;2023-02-28T01:02:42;3.00;;;1.20;;
17340;SDS011;8788;49.930;8.660;2023-02-28T01:05:10;3.03;;;1.13;;
17340;SDS011;8788;49.930;8.660;2023-02-28T01:07:37;2.55;;;1.55;;
17340;SDS011;8788;49.930;8.660;2023-02-28T01:10:04;2.22;;;1.65;;
17340;SDS011;8788;49.930;8.660;2023-02-28T01:12:32;1.00;;;1.00;;
17340;SDS011;8788;49.930;8.660;2023-02-28T01:14:59;2.08;;;1.52;;
17340;SDS011;8788;49.930;8.660;2023-02-28T01:17:26;2.55;;;1.95;;
17340;SDS011;8788;49.930;8.660;2023-02-28T01:19:53;2.10;;;1.08;;
17340;SDS011;8788;49.930;8.660;2023-02-28T01:22:25;3.33;;;1.70;;
17340;SDS011;8788;49.930;8.660;2023-02-28T01:24:52;1.80;;;1.40;;
17340;SDS011;8788;49.930;8.660;2023-02-28T01:27:19;1.27;;;1.20;;
17340;SDS011;8788;49.930;8.660;2023-02-28T01:29:46;2.33;;;1.20;;
17340;SDS011;8788;49.930;8.660;2023-02-28T01:32:14;2.92;;;1.45;;
17340;SDS011;8788;49.930;8.660;2023-02-28T01:34:41;2.10;;;1.30;;
17340;SDS011;8788;49.930;8.660;2023-02-28T01:37:08;1.73;;;1.63;;
17340;SDS011;8788;49.930;8.660;2023-02-28T01:39:37;3.17;;;1.30;;
17340;SDS011;8788;49.930;8.660;2023-02-28T01:42:04;1.95;;;1.75;;
17340;SDS011;8788;49.930;8.660;2023-02-28T01:47:38;1.55;;;1.45;;
17340;SDS011;8788;49.930;8.660;2023-02-28T01:50:09;1.83;;;1.42;;
17340;SDS011;8788;49.930;8.660;2023-02-28T01:52:40;3.05;;;1.60;;
17340;SDS011;8788;49.930;8.660;2023-02-28T01:55:09;2.97;;;1.80;;
17340;SDS011;8788;49.930;8.660;2023-02-28T01:57:39;2.60;;;1.67;;
17340;SDS011;8788;49.930;8.660;2023-02-28T02:00:10;1.55;;;1.45;;
17340;SDS011;8788;49.930;8.660;2023-02-28T02:02:46;2.58;;;1.42;;
17340;SDS011;8788;49.930;8.660;2023-02-28T02:05:16;2.75;;;1.83;;
17340;SDS011;8788;49.930;8.660;2023-02-28T02:07:45;1.60;;;1.50;;
17340;SDS011;8788;49.930;8.660;2023-02-28T02:10:18;4.43;;;1.90;;
17340;SDS011;8788;49.930;8.660;2023-02-28T02:12:52;2.33;;;1.80;;
17340;SDS011;8788;49.930;8.660;2023-02-28T02:15:42;1.50;;;1.38;;
17340;SDS011;8788;49.930;8.660;2023-02-28T02:18:17;1.92;;;1.58;;
17340;SDS011;8788;49.930;8.660;2023-02-28T02:23:50;3.83;;;1.90;;
17340;SDS011;8788;49.930;8.660;2023-02-28T02:26:41;4.43;;;2.10;;
17340;SDS011;8788;49.930;8.660;2023-02-28T02:29:23;1.60;;;1.50;;
17340;SDS011;8788;49.930;8.660;2023-02-28T02:32:16;2.60;;;1.77;;
17340;SDS011;8788;49.930;8.660;2023-02-28T02:35:02;4.18;;;1.63;;
17340;SDS011;8788;49.930;8.660;2023-02-28T02:37:40;3.13;;;1.65;;
17340;SDS011;8788;49.930;8.660;2023-02-28T02:40:14;3.03;;;1.70;;
17340;SDS011;8788;49.930;8.660;2023-02-28T02:42:49;1.90;;;1.80;;
17340;SDS011;8788;49.930;8.660;2023-02-28T02:45:23;1.67;;;1.58;;
17340;SDS011;8788;49.930;8.660;2023-02-28T02:47:53;2.13;;;1.90;;
17340;SDS011;8788;49.930;8.660;2023-02-28T02:50:24;2.30;;;1.75;;
17340;SDS011;8788;49.930;8.660;2023-02-28T02:53:03;2.55;;;1.88;;
17340;SDS011;8788;49.930;8.660;2023-02-28T02:55:35;2.80;;;1.48;;
17340;SDS011;8788;49.930;8.660;2023-02-28T02:58:10;2.10;;;1.67;;
17340;SDS011;8788;49.930;8.660;2023-02-28T03:00:42;3.03;;;2.20;;
17340;SDS011;8788;49.930;8.660;2023-02-28T03:03:13;2.80;;;1.98;;
17340;SDS011;8788;49.930;8.660;2023-02-28T03:05:45;3.22;;;1.92;;
17340;SDS011;8788;49.930;8.660;2023-02-28T03:08:14;2.85;;;2.38;;
17340;SDS011;8788;49.930;8.660;2023-02-28T03:10:42;2.78;;;1.92;;
17340;SDS011;8788;49.930;8.660;2023-02-28T03:16:29;1.95;;;1.85;;
17340;SDS011;8788;49.930;8.660;2023-02-28T03:19:08;2.30;;;1.95;;
17340;SDS011;8788;49.930;8.660;2023-02-28T03:21:52;6.13;;;2.42;;
17340;SDS011;8788;49.930;8.660;2023-02-28T03:24:30;2.00;;;1.67;;
17340;SDS011;8788;49.930;8.660;2023-02-28T03:27:06;3.42;;;2.28;;
17340;SDS011;8788;49.930;8.660;2023-02-28T03:29:37;2.00;;;1.83;;
17340;SDS011;8788;49.930;8.660;2023-02-28T03:32:19;2.30;;;1.92;;
17340;SDS011;8788;49.930;8.660;2023-02-28T03:34:54;3.40;;;2.20;;
17340;SDS011;8788;49.930;8.660;2023-02-28T03:37:27;3.30;;;2.30;;
17340;SDS011;8788;49.930;8.660;2023-02-28T03:40:00;2.80;;;2.20;;
17340;SDS011;8788;49.930;8.660;2023-02-28T03:42:32;2.00;;;1.77;;
17340;SDS011;8788;49.930;8.660;2023-02-28T03:45:04;1.98;;;1.67;;
17340;SDS011;8788;49.930;8.660;2023-02-28T03:47:36;3.97;;;2.00;;
17340;SDS011;8788;49.930;8.660;2023-02-28T03:50:10;1.90;;;1.75;;
17340;SDS011;8788;49.930;8.660;2023-02-28T03:52:44;3.00;;;2.40;;
17340;SDS011;8788;49.930;8.660;2023-02-28T03:55:16;2.17;;;1.90;;
17340;SDS011;8788;49.930;8.660;2023-02-28T03:57:47;3.55;;;2.05;;
17340;SDS011;8788;49.930;8.660;2023-02-28T04:00:25;2.78;;;1.85;;
17340;SDS011;8788;49.930;8.660;2023-02-28T04:02:56;2.67;;;2.10;;
17340;SDS011;8788;49.930;8.660;2023-02-28T04:05:23;3.45;;;2.30;;
17340;SDS011;8788;49.930;8.660;2023-02-28T04:07:52;2.25;;;2.05;;
17340;SDS011;8788;49.930;8.660;2023-02-28T04:10:19;2.88;;;2.00;;
17340;SDS011;8788;49.930;8.660;2023-02-28T04:12:46;4.63;;;2.17;;
17340;SDS011;8788;49.930;8.660;2023-02-28T04:15:13;3.95;;;2.25;;
17340;SDS011;8788;49.930;8.660;2023-02-28T04:17:41;2.92;;;1.92;;
17340;SDS011;8788;49.930;8.660;2023-02-28T04:20:08;1.90;;;1.70;;
17340;SDS011;8788;49.930;8.660;2023-02-28T04:22:36;2.50;;;2.30;;
17340;SDS011;8788;49.930;8.660;2023-02-28T04:25:06;2.30;;;2.10;;
17340;SDS011;8788;49.930;8.660;2023-02-28T04:27:33;3.03;;;2.15;;
17340;SDS011;8788;49.930;8.660;2023-02-28T04:30:00;2.67;;;2.00;;
17340;SDS011;8788;49.930;8.660;2023-02-28T04:32:27;4.30;;;2.00;;
17340;SDS011;8788;49.930;8.660;2023-02-28T04:34:54;3.25;;;1.88;;
17340;SDS011;8788;49.930;8.660;2023-02-28T04:37:22;3.10;;;2.22;;
17340;SDS011;8788;49.930;8.660;2023-02-28T04:39:53;2.60;;;2.13;;
17340;SDS011;8788;49.930;8.660;2023-02-28T04:42:22;4.38;;;2.05;;
17340;SDS011;8788;49.930;8.660;2023-02-28T04:44:49;4.03;;;2.10;;
17340;SDS011;8788;49.930;8.660;2023-02-28T04:47:16;4.85;;;1.65;;
17340;SDS011;8788;49.930;8.660;2023-02-28T04:49:43;2.20;;;2.05;;
17340;SDS011;8788;49.930;8.660;2023-02-28T04:52:10;1.92;;;1.50;;
17340;SDS011;8788;49.930;8.660;2023-02-28T04:54:38;1.95;;;1.85;;
17340;SDS011;8788;49.930;8.660;2023-02-28T04:57:05;2.22;;;2.03;;
17340;SDS011;8788;49.930;8.660;2023-02-28T04:59:33;2.35;;;2.15;;
17340;SDS011;8788;49.930;8.660;2023-02-28T05:02:01;2.75;;;2.13;;
17340;SDS011;8788;49.930;8.660;2023-02-28T05:04:31;4.43;;;2.10;;
17340;SDS011;8788;49.930;8.660;2023-02-28T05:06:59;2.75;;;2.17;;
17340;SDS011;8788;49.930;8.660;2023-02-28T05:09:27;2.15;;;1.95;;
17340;SDS011;8788;49.930;8.660;2023-02-28T05:11:54;2.30;;;1.60;;
17340;SDS011;8788;49.930;8.660;2023-02-28T05:14:21;2.20;;;1.75;;
17340;SDS011;8788;49.930;8.660;2023-02-28T05:16:50;2.50;;;2.30;;
17340;SDS011;8788;49.930;8.660;2023-02-28T05:19:17;3.28;;;2.05;;
17340;SDS011;8788;49.930;8.660;2023-02-28T05:21:49;3.17;;;1.98;;
17340;SDS011;8788;49.930;8.660;2023-02-28T05:24:17;3.25;;;1.70;;
17340;SDS011;8788;49.930;8.660;2023-02-28T05:26:48;1.98;;;1.70;;
17340;SDS011;8788;49.930;8.660;2023-02-28T05:29:16;1.80;;;1.70;;
17340;SDS011;8788;49.930;8.660;2023-02-28T05:31:43;3.05;;;2.00;;
17340;SDS011;8788;49.930;8.660;2023-02-28T05:34:12;2.42;;;1.75;;
17340;SDS011;8788;49.930;8.660;2023-02-28T05:36:41;5.13;;;2.20;;
17340;SDS011;8788;49.930;8.660;2023-02-28T05:39:08;2.85;;;2.00;;
17340;SDS011;8788;49.930;8.660;2023-02-28T05:41:38;2.03;;;1.88;;
17340;SDS011;8788;49.930;8.660;2023-02-28T05:44:06;3.90;;;1.98;;
17340;SDS011;8788;49.930;8.660;2023-02-28T05:46:33;1.90;;;1.80;;
17340;SDS011;8788;49.930;8.660;2023-02-28T05:49:00;2.35;;;1.85;;
17340;SDS011;8788;49.930;8.660;2023-02-28T05:51:29;4.38;;;1.88;;
17340;SDS011;8788;49.930;8.660;2023-02-28T05:53:58;3.35;;;1.90;;
17340;SDS011;8788;49.930;8.660;2023-02-28T05:56:26;1.75;;;1.65;;
17340;SDS011;8788;49.930;8.660;2023-02-28T05:58:54;2.45;;;1.75;;
17340;SDS011;8788;49.930;8.660;2023-02-28T06:01:22;2.25;;;2.08;;
17340;SDS011;8788;49.930;8.660;2023-02-28T06:03:52;1.90;;;1.75;;
17340;SDS011;8788;49.930;8.660;2023-02-28T06:06:19;1.88;;;1.70;;
17340;SDS011;8788;49.930;8.660;2023-02-28T06:08:48;3.47;;;2.10;;
17340;SDS011;8788;49.930;8.660;2023-02-28T06:11:15;1.48;;;1.38;;
17340;SDS011;8788;49.930;8.660;2023-02-28T06:13:42;1.85;;;1.67;;
17340;SDS011;8788;49.930;8.660;2023-02-28T06:16:10;3.20;;;1.98;;
17340;SDS011;8788;49.930;8.660;2023-02-28T06:18:37;2.00;;;1.80;;
17340;SDS011;8788;49.930;8.660;2023-02-28T06:21:05;1.95;;;1.83;;
17340;SDS011;8788;49.930;8.660;2023-02-28T06:23:33;5.18;;;2.95;;
17340;SDS011;8788;49.930;8.660;2023-02-28T06:26:02;3.80;;;2.92;;
17340;SDS011;8788;49.930;8.660;2023-02-28T06:28:29;3.25;;;2.67;;
17340;SDS011;8788;49.930;8.660;2023-02-28T06:30:57;2.03;;;1.88;;
17340;SDS011;8788;49.930;8.660;2023-02-28T06:33:24;6.45;;;2.47;;
17340;SDS011;8788;49.930;8.660;2023-02-28T06:35:51;2.55;;;2.35;;
17340;SDS011;8788;49.930;8.660;2023-02-28T06:38:18;3.10;;;2.00;;
17340;SDS011;8788;49.930;8.660;2023-02-28T06:40:52;3.90;;;2.50;;
17340;SDS011;8788;49.930;8.660;2023-02-28T06:43:21;3.03;;;2.83;;
17340;SDS011;8788;49.930;8.660;2023-02-28T06:45:49;2.60;;;2.40;;
17340;SDS011;8788;49.930;8.660;2023-02-28T06:48:20;2.72;;;2.35;;
17340;SDS011;8788;49.930;8.660;2023-02-28T06:50:47;4.15;;;2.03;;
17340;SDS011;8788;49.930;8.660;2023-02-28T06:53:14;2.10;;;1.90;;
17340;SDS011;8788;49.930;8.660;2023-02-28T06:55:41;1.90;;;1.80;;
17340;SDS011;8788;49.930;8.660;2023-02-28T06:58:08;4.13;;;2.28;;
17340;SDS011;8788;49.930;8.660;2023-02-28T07:00:45;2.75;;;2.08;;
17340;SDS011;8788;49.930;8.660;2023-02-28T07:03:12;2.30;;;2.13;;
17340;SDS011;8788;49.930;8.660;2023-02-28T07:05:40;3.55;;;1.98;;
17340;SDS011;8788;49.930;8.660;2023-02-28T07:08:07;2.00;;;1.80;;
17340;SDS011;8788;49.930;8.660;2023-02-28T07:10:36;2.83;;;2.10;;
17340;SDS011;8788;49.930;8.660;2023-02-28T07:13:04;9.35;;;5.55;;
17340;SDS011;8788;49.930;8.660;2023-02-28T07:15:31;3.45;;;2.97;;
17340;SDS011;8788;49.930;8.660;2023-02-28T07:17:59;3.72;;;3.08;;
17340;SDS011;8788;49.930;8.660;2023-02-28T07:20:27;5.10;;;3.25;;
17340;SDS011;8788;49.930;8.660;2023-02-28T07:22:54;3.08;;;2.08;;
17340;SDS011;8788;49.930;8.660;2023-02-28T07:25:21;3.03;;;2.35;;
17340;SDS011;8788;49.930;8.660;2023-02-28T07:27:49;4.10;;;3.00;;
17340;SDS011;8788;49.930;8.660;2023-02-28T07:30:16;2.00;;;1.75;;
17340;SDS011;8788;49.930;8.660;2023-02-28T07:32:44;3.75;;;2.40;;
17340;SDS011;8788;49.930;8.660;2023-02-28T07:35:12;1.77;;;1.67;;
17340;SDS011;8788;49.930;8.660;2023-02-28T07:37:40;2.33;;;1.70;;
17340;SDS011;8788;49.930;8.660;2023-02-28T07:40:09;2.78;;;2.15;;
17340;SDS011;8788;49.930;8.660;2023-02-28T07:42:37;6.97;;;2.10;;
17340;SDS011;8788;49.930;8.660;2023-02-28T07:45:06;2.45;;;2.15;;
17340;SDS011;8788;49.930;8.660;2023-02-28T07:47:36;2.53;;;1.77;;
17340;SDS011;8788;49.930;8.660;2023-02-28T07:50:04;2.13;;;1.80;;
17340;SDS011;8788;49.930;8.660;2023-02-28T07:52:33;2.45;;;1.75;;
17340;SDS011;8788;49.930;8.660;2023-02-28T07:55:00;1.88;;;1.77;;
17340;SDS011;8788;49.930;8.660;2023-02-28T07:57:28;4.82;;;1.63;;
17340;SDS011;8788;49.930;8.660;2023-02-28T07:59:55;3.70;;;1.83;;
17340;SDS011;8788;49.930;8.660;2023-02-28T08:02:22;1.27;;;1.17;;
17340;SDS011;8788;49.930;8.660;2023-02-28T08:04:49;1.60;;;1.50;;
17340;SDS011;8788;49.930;8.660;2023-02-28T08:07:16;1.98;;;1.63;;
17340;SDS011;8788;49.930;8.660;2023-02-28T08:09:45;1.63;;;1.48;;
17340;SDS011;8788;49.930;8.660;2023-02-28T08:12:12;2.70;;;1.80;;
17340;SDS011;8788;49.930;8.660;2023-02-28T08:14:40;2.88;;;1.80;;
17340;SDS011;8788;49.930;8.660;2023-02-28T08:17:07;2.78;;;1.88;;
17340;SDS011;8788;49.930;8.660;2023-02-28T08:19:34;2.38;;;2.17;;
17340;SDS011;8788;49.930;8.660;2023-02-28T08:22:01;1.92;;;1.73;;
17340;SDS011;8788;49.930;8.660;2023-02-28T08:24:28;1.98;;;1.75;;
17340;SDS011;8788;49.930;8.660;2023-02-28T08:26:57;2.85;;;1.83;;
17340;SDS011;8788;49.930;8.660;2023-02-28T08:29:24;3.17;;;2.05;;
17340;SDS011;8788;49.930;8.660;2023-02-28T08:31:51;2.08;;;1.88;;
17340;SDS011;8788;49.930;8.660;2023-02-28T08:34:18;2.17;;;1.58;;
17340;SDS011;8788;49.930;8.660;2023-02-28T08:36:45;2.42;;;2.17;;
17340;SDS011;8788;49.930;8.660;2023-02-28T08:39:12;5.03;;;1.83;;
17340;SDS011;8788;49.930;8.660;2023-02-28T08:41:39;4.78;;;2.35;;
17340;SDS011;8788;49.930;8.660;2023-02-28T08:44:10;2.05;;;1.80;;
17340;SDS011;8788;49.930;8.660;2023-02-28T08:46:37;2.95;;;2.50;;
17340;SDS011;8788;49.930;8.660;2023-02-28T08:49:04;2.78;;;2.28;;
17340;SDS011;8788;49.930;8.660;2023-02-28T08:51:32;2.70;;;1.98;;
17340;SDS011;8788;49.930;8.660;2023-02-28T08:53:59;3.13;;;2.10;;
17340;SDS011;8788;49.930;8.660;2023-02-28T08:56:27;4.95;;;2.17;;
17340;SDS011;8788;49.930;8.660;2023-02-28T08:58:55;3.78;;;2.63;;
17340;SDS011;8788;49.930;8.660;2023-02-28T09:01:25;3.40;;;1.70;;
17340;SDS011;8788;49.930;8.660;2023-02-28T09:03:54;2.88;;;2.25;;
17340;SDS011;8788;49.930;8.660;2023-02-28T09:06:22;3.63;;;2.58;;
17340;SDS011;8788;49.930;8.660;2023-02-28T09:08:51;2.97;;;2.42;;
17340;SDS011;8788;49.930;8.660;2023-02-28T09:11:19;4.93;;;2.40;;
17340;SDS011;8788;49.930;8.660;2023-02-28T09:13:46;3.10;;;2.22;;
17340;SDS011;8788;49.930;8.660;2023-02-28T09:16:14;3.83;;;2.33;;
17340;SDS011;8788;49.930;8.660;2023-02-28T09:18:43;3.72;;;2.85;;
17340;SDS011;8788;49.930;8.660;2023-02-28T09:21:11;5.38;;;2.88;;
17340;SDS011;8788;49.930;8.660;2023-02-28T09:23:39;5.13;;;2.50;;
17340;SDS011;8788;49.930;8.660;2023-02-28T09:29:53;4.47;;;2.15;;
17340;SDS011;8788;49.930;8.660;2023-02-28T09:32:21;5.97;;;2.72;;
17340;SDS011;8788;49.930;8.660;2023-02-28T09:34:49;2.63;;;2.38;;
17340;SDS011;8788;49.930;8.660;2023-02-28T09:37:16;4.63;;;2.78;;
17340;SDS011;8788;49.930;8.660;2023-02-28T09:39:43;3.63;;;3.00;;
17340;SDS011;8788;49.930;8.660;2023-02-28T09:42:12;3.40;;;2.60;;
17340;SDS011;8788;49.930;8.660;2023-02-28T09:44:47;2.45;;;2.25;;
17340;SDS011;8788;49.930;8.660;2023-02-28T09:47:17;5.10;;;3.40;;
17340;SDS011;8788;49.930;8.660;2023-02-28T09:49:54;5.43;;;2.97;;
17340;SDS011;8788;49.930;8.660;2023-02-28T09:52:26;3.97;;;2.85;;
17340;SDS011;8788;49.930;8.660;2023-02-28T09:54:56;3.90;;;3.00;;
17340;SDS011;8788;49.930;8.660;2023-02-28T09:57:45;4.18;;;3.40;;
17340;SDS011;8788;49.930;8.660;2023-02-28T10:00:13;3.45;;;2.80;;
17340;SDS011;8788;49.930;8.660;2023-02-28T10:02:53;4.82;;;3.00;;
17340;SDS011;8788;49.930;8.660;2023-02-28T10:05:31;9.35;;;3.20;;
17340;SDS011;8788;49.930;8.660;2023-02-28T10:08:04;3.22;;;2.75;;
17340;SDS011;8788;49.930;8.660;2023-02-28T10:10:38;3.92;;;3.20;;
17340;SDS011;8788;49.930;8.660;2023-02-28T10:13:12;2.80;;;2.50;;
17340;SDS011;8788;49.930;8.660;2023-02-28T10:15:43;6.25;;;3.13;;
17340;SDS011;8788;49.930;8.660;2023-02-28T10:18:14;3.80;;;3.05;;
17340;SDS011;8788;49.930;8.660;2023-02-28T10:20:47;3.17;;;2.55;;
17340;SDS011;8788;49.930;8.660;2023-02-28T10:23:17;2.97;;;2.65;;
17340;SDS011;8788;49.930;8.660;2023-02-28T10:25:50;3.83;;;3.20;;
17340;SDS011;8788;49.930;8.660;2023-02-28T10:28:22;3.40;;;2.88;;
17340;SDS011;8788;49.930;8.660;2023-02-28T10:30:52;3.22;;;2.78;;
17340;SDS011;8788;49.930;8.660;2023-02-28T10:33:24;3.60;;;2.75;;
17340;SDS011;8788;49.930;8.660;2023-02-28T10:35:57;3.47;;;2.92;;
17340;SDS011;8788;49.930;8.660;2023-02-28T10:38:26;3.88;;;3.10;;
17340;SDS011;8788;49.930;8.660;2023-02-28T10:41:05;3.88;;;2.40;;
17340;SDS011;8788;49.930;8.660;2023-02-28T10:43:34;3.85;;;2.95;;
17340;SDS011;8788;49.930;8.660;2023-02-28T10:46:02;3.72;;;2.80;;
17340;SDS011;8788;49.930;8.660;2023-02-28T10:48:37;4.18;;;3.17;;
17340;SDS011;8788;49.930;8.660;2023-02-28T10:51:07;3.03;;;2.72;;
17340;SDS011;8788;49.930;8.660;2023-02-28T10:53:47;3.75;;;2.95;;
17340;SDS011;8788;49.930;8.660;2023-02-28T10:56:17;3.70;;;2.35;;
17340;SDS011;8788;49.930;8.660;2023-02-28T10:58:53;2.60;;;2.40;;
17340;SDS011;8788;49.930;8.660;2023-02-28T11:01:23;3.05;;;2.72;;
17340;SDS011;8788;49.930;8.660;2023-02-28T11:03:51;3.67;;;2.83;;
17340;SDS011;8788;49.930;8.660;2023-02-28T11:06:21;3.78;;;2.97;;
17340;SDS011;8788;49.930;8.660;2023-02-28T11:08:50;3.75;;;3.38;;
17340;SDS011;8788;49.930;8.660;2023-02-28T11:11:19;3.80;;;3.00;;
17340;SDS011;8788;49.930;8.660;2023-02-28T11:13:50;3.25;;;2.90;;
17340;SDS011;8788;49.930;8.660;2023-02-28T11:16:19;4.53;;;3.03;;
17340;SDS011;8788;49.930;8.660;2023-02-28T11:18:48;3.38;;;3.05;;
17340;SDS011;8788;49.930;8.660;2023-02-28T11:21:23;2.40;;;2.17;;
17340;SDS011;8788;49.930;8.660;2023-02-28T11:23:55;4.47;;;2.53;;
17340;SDS011;8788;49.930;8.660;2023-02-28T11:26:36;3.72;;;2.83;;
17340;SDS011;8788;49.930;8.660;2023-02-28T11:29:17;3.42;;;3.13;;
17340;SDS011;8788;49.930;8.660;2023-02-28T11:32:03;3.30;;;2.88;;
17340;SDS011;8788;49.930;8.660;2023-02-28T11:34:42;4.07;;;3.10;;
17340;SDS011;8788;49.930;8.660;2023-02-28T11:37:12;6.05;;;3.30;;
17340;SDS011;8788;49.930;8.660;2023-02-28T11:39:41;6.20;;;3.38;;
17340;SDS011;8788;49.930;8.660;2023-02-28T11:42:16;5.28;;;3.38;;
17340;SDS011;8788;49.930;8.660;2023-02-28T11:45:11;3.38;;;2.45;;
17340;SDS011;8788;49.930;8.660;2023-02-28T11:47:47;5.03;;;3.42;;
17340;SDS011;8788;49.930;8.660;2023-02-28T11:50:21;2.90;;;2.53;;
17340;SDS011;8788;49.930;8.660;2023-02-28T11:52:59;3.70;;;3.25;;
17340;SDS011;8788;49.930;8.660;2023-02-28T11:55:30;5.47;;;3.47;;
17340;SDS011;8788;49.930;8.660;2023-02-28T11:58:05;5.95;;;2.85;;
17340;SDS011;8788;49.930;8.660;2023-02-28T12:00:54;3.47;;;3.17;;
17340;SDS011;8788;49.930;8.660;2023-02-28T12:03:33;4.65;;;3.10;;
17340;SDS011;8788;49.930;8.660;2023-02-28T12:06:09;4.95;;;3.20;;
17340;SDS011;8788;49.930;8.660;2023-02-28T12:08:49;3.70;;;2.67;;
17340;SDS011;8788;49.930;8.660;2023-02-28T12:11:33;3.28;;;2.67;;
17340;SDS011;8788;49.930;8.660;2023-02-28T12:14:17;3.10;;;2.90;;
17340;SDS011;8788;49.930;8.660;2023-02-28T12:17:10;3.60;;;3.00;;
17340;SDS011;8788;49.930;8.660;2023-02-28T12:19:48;5.45;;;2.88;;
17340;SDS011;8788;49.930;8.660;2023-02-28T12:22:30;4.13;;;3.13;;
17340;SDS011;8788;49.930;8.660;2023-02-28T12:28:00;4.07;;;3.05;;
17340;SDS011;8788;49.930;8.660;2023-02-28T12:30:28;4.82;;;2.95;;
17340;SDS011;8788;49.930;8.660;2023-02-28T12:32:58;5.00;;;3.63;;
17340;SDS011;8788;49.930;8.660;2023-02-28T12:35:32;3.83;;;3.53;;
17340;SDS011;8788;49.930;8.660;2023-02-28T12:38:02;3.63;;;2.78;;
17340;SDS011;8788;49.930;8.660;2023-02-28T12:40:34;7.28;;;3.53;;
17340;SDS011;8788;49.930;8.660;2023-02-28T12:43:13;3.70;;;3.05;;
17340;SDS011;8788;49.930;8.660;2023-02-28T12:45:44;4.30;;;3.22;;
17340;SDS011;8788;49.930;8.660;2023-02-28T12:48:15;5.22;;;4.32;;
17340;SDS011;8788;49.930;8.660;2023-02-28T12:50:48;5.07;;;3.47;;
17340;SDS011;8788;49.930;8.660;2023-02-28T12:53:17;4.00;;;3.40;;
17340;SDS011;8788;49.930;8.660;2023-02-28T12:55:54;4.22;;;3.50;;
17340;SDS011;8788;49.930;8.660;2023-02-28T12:58:31;3.53;;;3.22;;
17340;SDS011;8788;49.930;8.660;2023-02-28T13:01:06;7.60;;;3.63;;
17340;SDS011;8788;49.930;8.660;2023-02-28T13:04:08;4.50;;;3.47;;
17340;SDS011;8788;49.930;8.660;2023-02-28T13:07:12;4.03;;;3.38;;
17340;SDS011;8788;49.930;8.660;2023-02-28T13:09:56;4.47;;;4.07;;
17340;SDS011;8788;49.930;8.660;2023-02-28T13:12:25;3.50;;;3.17;;
17340;SDS011;8788;49.930;8.660;2023-02-28T13:15:01;3.58;;;3.17;;
17340;SDS011;8788;49.930;8.660;2023-02-28T13:17:31;4.75;;;3.30;;
17340;SDS011;8788;49.930;8.660;2023-02-28T13:19:59;4.75;;;3.92;;
17340;SDS011;8788;49.930;8.660;2023-02-28T13:22:37;4.10;;;3.40;;
17340;SDS011;8788;49.930;8.660;2023-02-28T13:28:08;5.38;;;3.40;;
17340;SDS011;8788;49.930;8.660;2023-02-28T13:33:29;4.47;;;3.58;;
17340;SDS011;8788;49.930;8.660;2023-02-28T13:36:01;4.88;;;4.05;;
17340;SDS011;8788;49.930;8.660;2023-02-28T13:38:39;5.20;;;4.13;;
17340;SDS011;8788;49.930;8.660;2023-02-28T13:44:10;4.07;;;3.58;;
17340;SDS011;8788;49.930;8.660;2023-02-28T13:49:45;5.00;;;3.63;;
17340;SDS011;8788;49.930;8.660;2023-02-28T13:52:12;4.22;;;3.72;;
17340;SDS011;8788;49.930;8.660;2023-02-28T13:54:58;5.75;;;3.55;;
17340;SDS011;8788;49.930;8.660;2023-02-28T14:01:05;3.70;;;3.17;;
17340;SDS011;8788;49.930;8.660;2023-02-28T14:03:57;4.95;;;3.58;;
17340;SDS011;8788;49.930;8.660;2023-02-28T14:06:37;4.05;;;3.33;;
17340;SDS011;8788;49.930;8.660;2023-02-28T14:09:16;4.00;;;3.58;;
17340;SDS011;8788;49.930;8.660;2023-02-28T14:11:49;3.92;;;3.63;;
17340;SDS011;8788;49.930;8.660;2023-02-28T14:17:22;5.72;;;4.13;;
17340;SDS011;8788;49.930;8.660;2023-02-28T14:19:50;3.75;;;3.40;;
17340;SDS011;8788;49.930;8.660;2023-02-28T14:22:24;4.00;;;3.60;;
17340;SDS011;8788;49.930;8.660;2023-02-28T14:25:09;3.95;;;3.55;;
17340;SDS011;8788;49.930;8.660;2023-02-28T14:27:45;5.97;;;3.60;;
17340;SDS011;8788;49.930;8.660;2023-02-28T14:33:26;3.83;;;3.25;;
17340;SDS011;8788;49.930;8.660;2023-02-28T14:36:06;4.00;;;3.55;;
17340;SDS011;8788;49.930;8.660;2023-02-28T14:38:41;7.88;;;3.38;;
17340;SDS011;8788;49.930;8.660;2023-02-28T14:41:14;3.83;;;3.45;;
17340;SDS011;8788;49.930;8.660;2023-02-28T14:43:48;3.40;;;2.90;;
17340;SDS011;8788;49.930;8.660;2023-02-28T14:46:22;5.03;;;3.58;;
17340;SDS011;8788;49.930;8.660;2023-02-28T14:48:52;4.05;;;2.90;;
17340;SDS011;8788;49.930;8.660;2023-02-28T14:51:20;3.42;;;3.13;;
17340;SDS011;8788;49.930;8.660;2023-02-28T14:53:51;5.43;;;3.63;;
17340;SDS011;8788;49.930;8.660;2023-02-28T14:56:26;4.05;;;3.65;;
17340;SDS011;8788;49.930;8.660;2023-02-28T14:58:56;6.13;;;3.63;;
17340;SDS011;8788;49.930;8.660;2023-02-28T15:01:24;5.70;;;3.65;;
17340;SDS011;8788;49.930;8.660;2023-02-28T15:03:59;4.60;;;4.20;;
17340;SDS011;8788;49.930;8.660;2023-02-28T15:06:28;4.50;;;3.63;;
17340;SDS011;8788;49.930;8.660;2023-02-28T15:11:44;4.50;;;3.15;;
17340;SDS011;8788;49.930;8.660;2023-02-28T15:14:15;3.80;;;3.35;;
17340;SDS011;8788;49.930;8.660;2023-02-28T15:16:46;4.45;;;4.03;;
17340;SDS011;8788;49.930;8.660;2023-02-28T15:19:18;3.90;;;3.42;;
17340;SDS011;8788;49.930;8.660;2023-02-28T15:21:50;4.43;;;3.30;;
17340;SDS011;8788;49.930;8.660;2023-02-28T15:24:21;4.85;;;3.78;;
17340;SDS011;8788;49.930;8.660;2023-02-28T15:26:58;5.55;;;3.35;;
17340;SDS011;8788;49.930;8.660;2023-02-28T15:29:29;4.20;;;3.90;;
17340;SDS011;8788;49.930;8.660;2023-02-28T15:32:01;4.53;;;3.47;;
17340;SDS011;8788;49.930;8.660;2023-02-28T15:34:33;4.07;;;3.45;;
17340;SDS011;8788;49.930;8.660;2023-02-28T15:37:06;3.78;;;3.38;;
17340;SDS011;8788;49.930;8.660;2023-02-28T15:39:52;4.82;;;3.55;;
17340;SDS011;8788;49.930;8.660;2023-02-28T15:42:21;4.13;;;3.20;;
17340;SDS011;8788;49.930;8.660;2023-02-28T15:44:52;5.57;;;3.80;;
17340;SDS011;8788;49.930;8.660;2023-02-28T15:47:19;5.15;;;3.72;;
17340;SDS011;8788;49.930;8.660;2023-02-28T15:49:48;5.07;;;3.17;;
17340;SDS011;8788;49.930;8.660;2023-02-28T15:52:18;5.20;;;3.17;;
17340;SDS011;8788;49.930;8.660;2023-02-28T15:54:47;5.18;;;3.40;;
17340;SDS011;8788;49.930;8.660;2023-02-28T15:57:17;4.22;;;3.83;;
17340;SDS011;8788;49.930;8.660;2023-02-28T15:59:49;3.90;;;3.50;;
17340;SDS011;8788;49.930;8.660;2023-02-28T16:02:19;6.80;;;4.03;;
17340;SDS011;8788;49.930;8.660;2023-02-28T16:04:54;5.05;;;3.85;;